Terminal Aerodrome Forecast
Issued by NWS

Home | Current Version | Previous Version | Text Only | Print | Product List | Glossary On
Versions: 1 2 3 4 5 6 7 8 9 10 11 12
000
FTUS46 KSGX 290500
TAFSNA
TAF
KSNA 290520Z 2906/3006 00000KT P6SM SKC
     FM291000 15003KT 2SM BR SCT005
      TEMPO 2910/2914 1SM BR BKN003
     FM291500 16004KT 3SM BR BKN004
     FM291700 16005KT P6SM SCT007
     FM300200 16006KT P6SM BKN015=

USA.gov is the U.S. government's official web portal to all federal, state and local government web resources and services.